sensor_id;sensor_type;location;lat;lon;timestamp;P1;durP1;ratioP1;P2;durP2;ratioP2
1366;SDS011;16877;48.810;9.282;2022-09-29T00:02:19;4.87;;;2.27;;
1366;SDS011;16877;48.810;9.282;2022-09-29T00:04:46;3.13;;;2.10;;
1366;SDS011;16877;48.810;9.282;2022-09-29T00:07:12;3.60;;;2.27;;
1366;SDS011;16877;48.810;9.282;2022-09-29T00:09:39;3.10;;;2.00;;
1366;SDS011;16877;48.810;9.282;2022-09-29T00:12:06;4.10;;;2.30;;
1366;SDS011;16877;48.810;9.282;2022-09-29T00:14:34;3.47;;;2.60;;
1366;SDS011;16877;48.810;9.282;2022-09-29T00:17:01;4.17;;;2.50;;
1366;SDS011;16877;48.810;9.282;2022-09-29T00:19:27;4.33;;;2.60;;
1366;SDS011;16877;48.810;9.282;2022-09-29T00:21:54;3.50;;;2.00;;
1366;SDS011;16877;48.810;9.282;2022-09-29T00:24:21;3.80;;;1.93;;
1366;SDS011;16877;48.810;9.282;2022-09-29T00:26:48;4.53;;;2.47;;
1366;SDS011;16877;48.810;9.282;2022-09-29T00:29:14;3.53;;;1.90;;
1366;SDS011;16877;48.810;9.282;2022-09-29T00:31:42;3.10;;;1.93;;
1366;SDS011;16877;48.810;9.282;2022-09-29T00:34:09;5.20;;;2.10;;
1366;SDS011;16877;48.810;9.282;2022-09-29T00:36:36;2.87;;;1.80;;
1366;SDS011;16877;48.810;9.282;2022-09-29T00:39:03;4.10;;;2.00;;
1366;SDS011;16877;48.810;9.282;2022-09-29T00:41:30;2.87;;;1.57;;
1366;SDS011;16877;48.810;9.282;2022-09-29T00:43:59;2.80;;;2.10;;
1366;SDS011;16877;48.810;9.282;2022-09-29T00:46:28;3.53;;;2.40;;
1366;SDS011;16877;48.810;9.282;2022-09-29T00:49:03;3.27;;;2.20;;
1366;SDS011;16877;48.810;9.282;2022-09-29T00:51:33;2.60;;;1.77;;
1366;SDS011;16877;48.810;9.282;2022-09-29T00:54:03;2.60;;;1.83;;
1366;SDS011;16877;48.810;9.282;2022-09-29T00:56:32;3.57;;;2.23;;
1366;SDS011;16877;48.810;9.282;2022-09-29T00:59:02;4.03;;;2.10;;
1366;SDS011;16877;48.810;9.282;2022-09-29T01:01:33;3.03;;;2.13;;
1366;SDS011;16877;48.810;9.282;2022-09-29T01:04:03;4.47;;;2.33;;
1366;SDS011;16877;48.810;9.282;2022-09-29T01:06:35;4.10;;;2.57;;
1366;SDS011;16877;48.810;9.282;2022-09-29T01:09:07;4.73;;;2.70;;
1366;SDS011;16877;48.810;9.282;2022-09-29T01:11:37;3.80;;;2.33;;
1366;SDS011;16877;48.810;9.282;2022-09-29T01:14:05;3.10;;;2.40;;
1366;SDS011;16877;48.810;9.282;2022-09-29T01:16:34;3.13;;;2.37;;
1366;SDS011;16877;48.810;9.282;2022-09-29T01:19:05;3.43;;;2.43;;
1366;SDS011;16877;48.810;9.282;2022-09-29T01:21:35;4.80;;;2.83;;
1366;SDS011;16877;48.810;9.282;2022-09-29T01:27:16;4.80;;;2.43;;
1366;SDS011;16877;48.810;9.282;2022-09-29T01:30:05;6.53;;;2.17;;
1366;SDS011;16877;48.810;9.282;2022-09-29T01:32:42;3.80;;;1.87;;
1366;SDS011;16877;48.810;9.282;2022-09-29T01:35:21;2.53;;;1.60;;
1366;SDS011;16877;48.810;9.282;2022-09-29T01:37:57;3.67;;;1.90;;
1366;SDS011;16877;48.810;9.282;2022-09-29T01:40:38;5.10;;;2.10;;
1366;SDS011;16877;48.810;9.282;2022-09-29T01:43:13;4.00;;;2.00;;
1366;SDS011;16877;48.810;9.282;2022-09-29T01:45:45;3.10;;;1.70;;
1366;SDS011;16877;48.810;9.282;2022-09-29T01:48:18;4.30;;;2.17;;
1366;SDS011;16877;48.810;9.282;2022-09-29T01:50:51;3.37;;;2.13;;
1366;SDS011;16877;48.810;9.282;2022-09-29T01:53:22;2.93;;;1.83;;
1366;SDS011;16877;48.810;9.282;2022-09-29T01:55:54;2.77;;;1.60;;
1366;SDS011;16877;48.810;9.282;2022-09-29T01:58:28;3.90;;;2.00;;
1366;SDS011;16877;48.810;9.282;2022-09-29T02:01:01;3.50;;;2.10;;
1366;SDS011;16877;48.810;9.282;2022-09-29T02:03:33;2.80;;;1.90;;
1366;SDS011;16877;48.810;9.282;2022-09-29T02:06:06;5.37;;;3.00;;
1366;SDS011;16877;48.810;9.282;2022-09-29T02:08:38;2.90;;;2.20;;
1366;SDS011;16877;48.810;9.282;2022-09-29T02:11:08;2.70;;;2.20;;
1366;SDS011;16877;48.810;9.282;2022-09-29T02:13:38;2.90;;;2.20;;
1366;SDS011;16877;48.810;9.282;2022-09-29T02:16:08;3.80;;;2.50;;
1366;SDS011;16877;48.810;9.282;2022-09-29T02:18:41;3.73;;;2.03;;
1366;SDS011;16877;48.810;9.282;2022-09-29T02:21:13;4.63;;;2.33;;
1366;SDS011;16877;48.810;9.282;2022-09-29T02:23:40;2.93;;;2.30;;
1366;SDS011;16877;48.810;9.282;2022-09-29T02:26:07;4.50;;;2.30;;
1366;SDS011;16877;48.810;9.282;2022-09-29T02:28:35;3.80;;;2.60;;
1366;SDS011;16877;48.810;9.282;2022-09-29T02:31:02;3.20;;;2.37;;
1366;SDS011;16877;48.810;9.282;2022-09-29T02:33:30;3.43;;;2.47;;
1366;SDS011;16877;48.810;9.282;2022-09-29T02:36:00;4.13;;;2.50;;
1366;SDS011;16877;48.810;9.282;2022-09-29T02:38:40;3.20;;;2.50;;
1366;SDS011;16877;48.810;9.282;2022-09-29T02:41:11;3.87;;;2.60;;
1366;SDS011;16877;48.810;9.282;2022-09-29T02:43:54;2.80;;;2.33;;
1366;SDS011;16877;48.810;9.282;2022-09-29T02:46:48;5.60;;;2.97;;
1366;SDS011;16877;48.810;9.282;2022-09-29T02:49:31;3.73;;;2.37;;
1366;SDS011;16877;48.810;9.282;2022-09-29T02:52:11;6.03;;;2.83;;
1366;SDS011;16877;48.810;9.282;2022-09-29T02:54:48;4.13;;;2.80;;
1366;SDS011;16877;48.810;9.282;2022-09-29T02:57:23;3.30;;;2.97;;
1366;SDS011;16877;48.810;9.282;2022-09-29T02:59:59;3.50;;;2.37;;
1366;SDS011;16877;48.810;9.282;2022-09-29T03:02:32;3.90;;;3.00;;
1366;SDS011;16877;48.810;9.282;2022-09-29T03:04:59;4.90;;;3.27;;
1366;SDS011;16877;48.810;9.282;2022-09-29T03:07:28;4.40;;;2.83;;
1366;SDS011;16877;48.810;9.282;2022-09-29T03:09:55;4.73;;;2.93;;
1366;SDS011;16877;48.810;9.282;2022-09-29T03:12:22;3.97;;;2.63;;
1366;SDS011;16877;48.810;9.282;2022-09-29T03:14:48;3.33;;;2.73;;
1366;SDS011;16877;48.810;9.282;2022-09-29T03:17:15;3.73;;;2.57;;
1366;SDS011;16877;48.810;9.282;2022-09-29T03:19:42;3.70;;;2.70;;
1366;SDS011;16877;48.810;9.282;2022-09-29T03:22:08;4.13;;;2.90;;
1366;SDS011;16877;48.810;9.282;2022-09-29T03:24:36;3.20;;;2.43;;
1366;SDS011;16877;48.810;9.282;2022-09-29T03:27:03;4.03;;;2.43;;
1366;SDS011;16877;48.810;9.282;2022-09-29T03:29:30;4.37;;;2.63;;
1366;SDS011;16877;48.810;9.282;2022-09-29T03:31:57;3.77;;;2.90;;
1366;SDS011;16877;48.810;9.282;2022-09-29T03:34:24;5.07;;;2.53;;
1366;SDS011;16877;48.810;9.282;2022-09-29T03:36:51;4.67;;;2.60;;
1366;SDS011;16877;48.810;9.282;2022-09-29T03:39:18;4.63;;;2.90;;
1366;SDS011;16877;48.810;9.282;2022-09-29T03:41:46;3.60;;;2.50;;
1366;SDS011;16877;48.810;9.282;2022-09-29T03:44:13;4.17;;;2.70;;
1366;SDS011;16877;48.810;9.282;2022-09-29T03:46:39;3.13;;;2.40;;
1366;SDS011;16877;48.810;9.282;2022-09-29T03:49:07;3.30;;;2.17;;
1366;SDS011;16877;48.810;9.282;2022-09-29T03:51:36;3.57;;;2.80;;
1366;SDS011;16877;48.810;9.282;2022-09-29T03:54:02;3.23;;;2.37;;
1366;SDS011;16877;48.810;9.282;2022-09-29T03:56:30;3.83;;;2.70;;
1366;SDS011;16877;48.810;9.282;2022-09-29T03:58:58;4.30;;;2.53;;
1366;SDS011;16877;48.810;9.282;2022-09-29T04:01:25;3.13;;;2.10;;
1366;SDS011;16877;48.810;9.282;2022-09-29T04:03:52;3.77;;;2.87;;
1366;SDS011;16877;48.810;9.282;2022-09-29T04:06:18;3.23;;;2.07;;
1366;SDS011;16877;48.810;9.282;2022-09-29T04:08:45;4.00;;;3.10;;
1366;SDS011;16877;48.810;9.282;2022-09-29T04:11:13;4.70;;;3.07;;
1366;SDS011;16877;48.810;9.282;2022-09-29T04:13:40;4.87;;;2.93;;
1366;SDS011;16877;48.810;9.282;2022-09-29T04:16:08;2.83;;;2.53;;
1366;SDS011;16877;48.810;9.282;2022-09-29T04:18:35;4.10;;;3.00;;
1366;SDS011;16877;48.810;9.282;2022-09-29T04:21:04;3.37;;;2.70;;
1366;SDS011;16877;48.810;9.282;2022-09-29T04:23:31;5.30;;;3.30;;
1366;SDS011;16877;48.810;9.282;2022-09-29T04:25:58;3.77;;;3.10;;
1366;SDS011;16877;48.810;9.282;2022-09-29T04:28:26;4.10;;;3.03;;
1366;SDS011;16877;48.810;9.282;2022-09-29T04:30:53;4.20;;;3.43;;
1366;SDS011;16877;48.810;9.282;2022-09-29T04:33:21;6.23;;;3.33;;
1366;SDS011;16877;48.810;9.282;2022-09-29T04:35:48;5.03;;;3.40;;
1366;SDS011;16877;48.810;9.282;2022-09-29T04:38:15;4.53;;;3.07;;
1366;SDS011;16877;48.810;9.282;2022-09-29T04:40:42;4.27;;;3.20;;
1366;SDS011;16877;48.810;9.282;2022-09-29T04:43:08;4.37;;;3.23;;
1366;SDS011;16877;48.810;9.282;2022-09-29T04:45:35;3.90;;;3.20;;
1366;SDS011;16877;48.810;9.282;2022-09-29T04:48:02;5.60;;;3.03;;
1366;SDS011;16877;48.810;9.282;2022-09-29T04:50:30;3.73;;;2.70;;
1366;SDS011;16877;48.810;9.282;2022-09-29T04:52:57;4.17;;;2.97;;
1366;SDS011;16877;48.810;9.282;2022-09-29T04:55:23;3.77;;;2.50;;
1366;SDS011;16877;48.810;9.282;2022-09-29T04:57:50;3.80;;;2.83;;
1366;SDS011;16877;48.810;9.282;2022-09-29T05:00:17;4.63;;;2.83;;
1366;SDS011;16877;48.810;9.282;2022-09-29T05:02:45;4.33;;;3.23;;
1366;SDS011;16877;48.810;9.282;2022-09-29T05:05:12;4.80;;;3.50;;
1366;SDS011;16877;48.810;9.282;2022-09-29T05:07:40;3.37;;;2.67;;
1366;SDS011;16877;48.810;9.282;2022-09-29T05:10:08;3.63;;;2.90;;
1366;SDS011;16877;48.810;9.282;2022-09-29T05:12:35;3.90;;;2.70;;
1366;SDS011;16877;48.810;9.282;2022-09-29T05:15:02;3.80;;;2.63;;
1366;SDS011;16877;48.810;9.282;2022-09-29T05:17:30;5.30;;;3.80;;
1366;SDS011;16877;48.810;9.282;2022-09-29T05:19:57;3.10;;;2.80;;
1366;SDS011;16877;48.810;9.282;2022-09-29T05:22:23;5.00;;;3.50;;
1366;SDS011;16877;48.810;9.282;2022-09-29T05:24:52;3.70;;;2.40;;
1366;SDS011;16877;48.810;9.282;2022-09-29T05:27:19;3.40;;;2.80;;
1366;SDS011;16877;48.810;9.282;2022-09-29T05:29:46;4.03;;;3.10;;
1366;SDS011;16877;48.810;9.282;2022-09-29T05:32:13;4.47;;;2.70;;
1366;SDS011;16877;48.810;9.282;2022-09-29T05:34:39;5.07;;;2.70;;
1366;SDS011;16877;48.810;9.282;2022-09-29T05:37:06;3.10;;;2.67;;
1366;SDS011;16877;48.810;9.282;2022-09-29T05:39:33;4.30;;;3.10;;
1366;SDS011;16877;48.810;9.282;2022-09-29T05:42:02;3.90;;;3.07;;
1366;SDS011;16877;48.810;9.282;2022-09-29T05:44:30;5.00;;;3.37;;
1366;SDS011;16877;48.810;9.282;2022-09-29T05:46:57;4.93;;;3.10;;
1366;SDS011;16877;48.810;9.282;2022-09-29T05:49:24;3.93;;;3.33;;
1366;SDS011;16877;48.810;9.282;2022-09-29T05:51:51;6.10;;;3.30;;
1366;SDS011;16877;48.810;9.282;2022-09-29T05:54:17;3.47;;;2.70;;
1366;SDS011;16877;48.810;9.282;2022-09-29T05:56:45;4.90;;;3.53;;
1366;SDS011;16877;48.810;9.282;2022-09-29T05:59:13;4.20;;;3.10;;
1366;SDS011;16877;48.810;9.282;2022-09-29T06:01:40;6.87;;;5.03;;
1366;SDS011;16877;48.810;9.282;2022-09-29T06:04:06;4.77;;;4.17;;
1366;SDS011;16877;48.810;9.282;2022-09-29T06:06:33;4.93;;;3.80;;
1366;SDS011;16877;48.810;9.282;2022-09-29T06:09:00;4.87;;;3.97;;
1366;SDS011;16877;48.810;9.282;2022-09-29T06:11:28;7.03;;;3.83;;
1366;SDS011;16877;48.810;9.282;2022-09-29T06:13:56;5.00;;;3.90;;
1366;SDS011;16877;48.810;9.282;2022-09-29T06:16:25;4.23;;;3.63;;
1366;SDS011;16877;48.810;9.282;2022-09-29T06:18:53;5.00;;;3.37;;
1366;SDS011;16877;48.810;9.282;2022-09-29T06:21:21;4.70;;;3.63;;
1366;SDS011;16877;48.810;9.282;2022-09-29T06:23:48;3.73;;;2.90;;
1366;SDS011;16877;48.810;9.282;2022-09-29T06:26:16;3.97;;;3.17;;
1366;SDS011;16877;48.810;9.282;2022-09-29T06:28:44;3.47;;;2.77;;
1366;SDS011;16877;48.810;9.282;2022-09-29T06:31:11;4.23;;;3.00;;
1366;SDS011;16877;48.810;9.282;2022-09-29T06:33:41;5.07;;;2.83;;
1366;SDS011;16877;48.810;9.282;2022-09-29T06:36:10;3.40;;;2.70;;
1366;SDS011;16877;48.810;9.282;2022-09-29T06:38:58;3.80;;;2.17;;
1366;SDS011;16877;48.810;9.282;2022-09-29T06:41:25;3.90;;;3.00;;
1366;SDS011;16877;48.810;9.282;2022-09-29T06:43:53;4.13;;;3.10;;
1366;SDS011;16877;48.810;9.282;2022-09-29T06:46:20;2.80;;;2.20;;
1366;SDS011;16877;48.810;9.282;2022-09-29T06:48:48;4.80;;;2.70;;
1366;SDS011;16877;48.810;9.282;2022-09-29T06:51:15;3.10;;;2.30;;
1366;SDS011;16877;48.810;9.282;2022-09-29T06:53:41;3.00;;;2.10;;
1366;SDS011;16877;48.810;9.282;2022-09-29T06:56:09;3.73;;;2.60;;
1366;SDS011;16877;48.810;9.282;2022-09-29T06:58:36;4.03;;;2.93;;
1366;SDS011;16877;48.810;9.282;2022-09-29T07:01:03;4.60;;;3.00;;
1366;SDS011;16877;48.810;9.282;2022-09-29T07:03:31;3.97;;;3.27;;
1366;SDS011;16877;48.810;9.282;2022-09-29T07:06:02;4.97;;;3.10;;
1366;SDS011;16877;48.810;9.282;2022-09-29T07:08:29;4.10;;;3.40;;
1366;SDS011;16877;48.810;9.282;2022-09-29T07:10:56;5.73;;;3.50;;
1366;SDS011;16877;48.810;9.282;2022-09-29T07:13:24;6.23;;;4.00;;
1366;SDS011;16877;48.810;9.282;2022-09-29T07:15:51;5.17;;;3.53;;
1366;SDS011;16877;48.810;9.282;2022-09-29T07:18:19;7.67;;;4.40;;
1366;SDS011;16877;48.810;9.282;2022-09-29T07:20:45;5.13;;;3.93;;
1366;SDS011;16877;48.810;9.282;2022-09-29T07:23:13;6.70;;;4.03;;
1366;SDS011;16877;48.810;9.282;2022-09-29T07:25:40;5.40;;;4.13;;
1366;SDS011;16877;48.810;9.282;2022-09-29T07:28:07;4.97;;;3.67;;
1366;SDS011;16877;48.810;9.282;2022-09-29T07:30:33;5.87;;;4.03;;
1366;SDS011;16877;48.810;9.282;2022-09-29T07:33:01;5.60;;;4.00;;
1366;SDS011;16877;48.810;9.282;2022-09-29T07:35:28;4.97;;;4.00;;
1366;SDS011;16877;48.810;9.282;2022-09-29T07:37:54;5.23;;;3.60;;
1366;SDS011;16877;48.810;9.282;2022-09-29T07:40:23;6.37;;;4.23;;
1366;SDS011;16877;48.810;9.282;2022-09-29T07:42:50;4.30;;;3.17;;
1366;SDS011;16877;48.810;9.282;2022-09-29T07:45:17;8.23;;;3.93;;
1366;SDS011;16877;48.810;9.282;2022-09-29T07:47:43;5.33;;;3.50;;
1366;SDS011;16877;48.810;9.282;2022-09-29T07:50:10;5.67;;;3.90;;
1366;SDS011;16877;48.810;9.282;2022-09-29T07:52:38;3.97;;;3.30;;
1366;SDS011;16877;48.810;9.282;2022-09-29T07:55:05;4.10;;;3.70;;
1366;SDS011;16877;48.810;9.282;2022-09-29T07:57:33;7.13;;;3.77;;
1366;SDS011;16877;48.810;9.282;2022-09-29T08:00:01;4.63;;;3.90;;
1366;SDS011;16877;48.810;9.282;2022-09-29T08:02:28;4.47;;;3.60;;
1366;SDS011;16877;48.810;9.282;2022-09-29T08:04:54;5.00;;;4.07;;
1366;SDS011;16877;48.810;9.282;2022-09-29T08:07:21;5.27;;;4.00;;
1366;SDS011;16877;48.810;9.282;2022-09-29T08:09:48;7.03;;;4.53;;
1366;SDS011;16877;48.810;9.282;2022-09-29T08:12:15;7.70;;;4.03;;
1366;SDS011;16877;48.810;9.282;2022-09-29T08:14:43;4.90;;;4.07;;
1366;SDS011;16877;48.810;9.282;2022-09-29T08:17:09;5.60;;;4.63;;
1366;SDS011;16877;48.810;9.282;2022-09-29T08:19:36;4.40;;;3.50;;
1366;SDS011;16877;48.810;9.282;2022-09-29T08:22:03;5.87;;;4.07;;
1366;SDS011;16877;48.810;9.282;2022-09-29T08:24:30;7.73;;;4.60;;
1366;SDS011;16877;48.810;9.282;2022-09-29T08:26:56;5.63;;;3.60;;
1366;SDS011;16877;48.810;9.282;2022-09-29T08:29:23;5.60;;;4.50;;
1366;SDS011;16877;48.810;9.282;2022-09-29T08:31:51;5.60;;;3.27;;
1366;SDS011;16877;48.810;9.282;2022-09-29T08:34:20;4.23;;;3.23;;
1366;SDS011;16877;48.810;9.282;2022-09-29T08:36:46;5.20;;;3.93;;
1366;SDS011;16877;48.810;9.282;2022-09-29T08:39:13;5.50;;;4.00;;
1366;SDS011;16877;48.810;9.282;2022-09-29T08:41:47;4.40;;;3.00;;
1366;SDS011;16877;48.810;9.282;2022-09-29T08:44:18;6.47;;;3.90;;
1366;SDS011;16877;48.810;9.282;2022-09-29T08:46:53;5.10;;;3.80;;
1366;SDS011;16877;48.810;9.282;2022-09-29T08:49:25;5.93;;;3.90;;
1366;SDS011;16877;48.810;9.282;2022-09-29T08:51:57;7.30;;;4.30;;
1366;SDS011;16877;48.810;9.282;2022-09-29T08:54:32;5.13;;;3.27;;
1366;SDS011;16877;48.810;9.282;2022-09-29T08:57:00;5.20;;;3.63;;
1366;SDS011;16877;48.810;9.282;2022-09-29T08:59:28;3.87;;;2.90;;
1366;SDS011;16877;48.810;9.282;2022-09-29T09:02:01;5.07;;;3.50;;
1366;SDS011;16877;48.810;9.282;2022-09-29T09:04:52;4.10;;;2.70;;
1366;SDS011;16877;48.810;9.282;2022-09-29T09:07:33;5.30;;;3.80;;
1366;SDS011;16877;48.810;9.282;2022-09-29T09:10:13;5.03;;;3.03;;
1366;SDS011;16877;48.810;9.282;2022-09-29T09:12:55;5.70;;;3.57;;
1366;SDS011;16877;48.810;9.282;2022-09-29T09:18:29;3.77;;;2.83;;
1366;SDS011;16877;48.810;9.282;2022-09-29T09:21:24;3.20;;;2.60;;
1366;SDS011;16877;48.810;9.282;2022-09-29T09:23:56;5.10;;;2.67;;
1366;SDS011;16877;48.810;9.282;2022-09-29T09:26:30;3.80;;;2.90;;
1366;SDS011;16877;48.810;9.282;2022-09-29T09:29:00;5.10;;;3.40;;
1366;SDS011;16877;48.810;9.282;2022-09-29T09:31:30;4.23;;;2.63;;
1366;SDS011;16877;48.810;9.282;2022-09-29T09:34:05;5.07;;;2.60;;
1366;SDS011;16877;48.810;9.282;2022-09-29T09:36:39;4.20;;;2.27;;
1366;SDS011;16877;48.810;9.282;2022-09-29T09:39:11;4.47;;;3.60;;
1366;SDS011;16877;48.810;9.282;2022-09-29T09:41:40;3.83;;;2.73;;
1366;SDS011;16877;48.810;9.282;2022-09-29T09:44:10;3.13;;;2.17;;
1366;SDS011;16877;48.810;9.282;2022-09-29T09:46:42;5.63;;;2.50;;
1366;SDS011;16877;48.810;9.282;2022-09-29T09:49:15;3.53;;;2.63;;
1366;SDS011;16877;48.810;9.282;2022-09-29T09:51:48;3.10;;;2.33;;
1366;SDS011;16877;48.810;9.282;2022-09-29T09:54:23;5.80;;;2.53;;
1366;SDS011;16877;48.810;9.282;2022-09-29T09:57:00;3.77;;;2.30;;
1366;SDS011;16877;48.810;9.282;2022-09-29T09:59:47;3.83;;;2.57;;
1366;SDS011;16877;48.810;9.282;2022-09-29T10:02:24;4.33;;;2.30;;
1366;SDS011;16877;48.810;9.282;2022-09-29T10:04:52;3.90;;;2.50;;
1366;SDS011;16877;48.810;9.282;2022-09-29T10:07:21;4.27;;;2.47;;
1366;SDS011;16877;48.810;9.282;2022-09-29T10:09:50;3.90;;;2.13;;
1366;SDS011;16877;48.810;9.282;2022-09-29T10:12:18;3.53;;;2.17;;
1366;SDS011;16877;48.810;9.282;2022-09-29T10:14:47;3.90;;;2.23;;
1366;SDS011;16877;48.810;9.282;2022-09-29T10:17:18;3.83;;;2.37;;
1366;SDS011;16877;48.810;9.282;2022-09-29T10:19:53;3.00;;;2.07;;
1366;SDS011;16877;48.810;9.282;2022-09-29T10:22:22;3.43;;;2.30;;
1366;SDS011;16877;48.810;9.282;2022-09-29T10:24:51;4.53;;;2.20;;
1366;SDS011;16877;48.810;9.282;2022-09-29T10:27:21;3.60;;;2.10;;
1366;SDS011;16877;48.810;9.282;2022-09-29T10:29:50;3.30;;;2.07;;
1366;SDS011;16877;48.810;9.282;2022-09-29T10:32:21;3.30;;;1.90;;
1366;SDS011;16877;48.810;9.282;2022-09-29T10:34:53;4.97;;;2.13;;
1366;SDS011;16877;48.810;9.282;2022-09-29T10:37:31;3.23;;;1.80;;
1366;SDS011;16877;48.810;9.282;2022-09-29T10:40:08;2.30;;;1.37;;
1366;SDS011;16877;48.810;9.282;2022-09-29T10:42:41;5.40;;;1.53;;
1366;SDS011;16877;48.810;9.282;2022-09-29T10:45:12;2.53;;;1.43;;
1366;SDS011;16877;48.810;9.282;2022-09-29T10:47:41;2.40;;;1.40;;
1366;SDS011;16877;48.810;9.282;2022-09-29T10:50:14;2.87;;;1.60;;
1366;SDS011;16877;48.810;9.282;2022-09-29T10:52:42;2.87;;;1.60;;
1366;SDS011;16877;48.810;9.282;2022-09-29T10:55:16;5.40;;;1.87;;
1366;SDS011;16877;48.810;9.282;2022-09-29T10:57:45;3.17;;;1.80;;
1366;SDS011;16877;48.810;9.282;2022-09-29T11:00:25;4.07;;;1.70;;
1366;SDS011;16877;48.810;9.282;2022-09-29T11:02:57;3.53;;;1.97;;
1366;SDS011;16877;48.810;9.282;2022-09-29T11:05:30;3.93;;;1.67;;
1366;SDS011;16877;48.810;9.282;2022-09-29T11:07:57;3.30;;;1.80;;
1366;SDS011;16877;48.810;9.282;2022-09-29T11:10:27;2.83;;;1.53;;
1366;SDS011;16877;48.810;9.282;2022-09-29T11:12:56;4.90;;;1.50;;
1366;SDS011;16877;48.810;9.282;2022-09-29T11:15:24;2.60;;;1.40;;
1366;SDS011;16877;48.810;9.282;2022-09-29T11:17:53;4.30;;;1.20;;
1366;SDS011;16877;48.810;9.282;2022-09-29T11:20:22;3.20;;;1.60;;
1366;SDS011;16877;48.810;9.282;2022-09-29T11:22:56;3.90;;;2.03;;
1366;SDS011;16877;48.810;9.282;2022-09-29T11:28:38;3.27;;;1.70;;
1366;SDS011;16877;48.810;9.282;2022-09-29T11:31:31;4.40;;;1.70;;
1366;SDS011;16877;48.810;9.282;2022-09-29T11:34:10;3.67;;;1.63;;
1366;SDS011;16877;48.810;9.282;2022-09-29T11:37:00;3.53;;;1.87;;
1366;SDS011;16877;48.810;9.282;2022-09-29T11:39:38;3.63;;;1.40;;
1366;SDS011;16877;48.810;9.282;2022-09-29T11:42:22;3.80;;;2.07;;
1366;SDS011;16877;48.810;9.282;2022-09-29T11:45:02;3.70;;;2.10;;
1366;SDS011;16877;48.810;9.282;2022-09-29T11:47:52;2.70;;;2.00;;
1366;SDS011;16877;48.810;9.282;2022-09-29T11:50:33;3.97;;;2.30;;
1366;SDS011;16877;48.810;9.282;2022-09-29T11:53:14;3.50;;;1.90;;
1366;SDS011;16877;48.810;9.282;2022-09-29T11:56:02;3.40;;;2.20;;
1366;SDS011;16877;48.810;9.282;2022-09-29T11:58:42;3.23;;;1.80;;
1366;SDS011;16877;48.810;9.282;2022-09-29T12:01:20;3.67;;;1.53;;
1366;SDS011;16877;48.810;9.282;2022-09-29T12:04:02;3.17;;;1.63;;
1366;SDS011;16877;48.810;9.282;2022-09-29T12:06:51;2.50;;;1.40;;
1366;SDS011;16877;48.810;9.282;2022-09-29T12:09:27;2.83;;;1.60;;
1366;SDS011;16877;48.810;9.282;2022-09-29T12:12:06;3.00;;;1.23;;
1366;SDS011;16877;48.810;9.282;2022-09-29T12:14:41;6.13;;;1.43;;
1366;SDS011;16877;48.810;9.282;2022-09-29T12:17:17;2.50;;;1.30;;
1366;SDS011;16877;48.810;9.282;2022-09-29T12:19:46;5.47;;;1.90;;
1366;SDS011;16877;48.810;9.282;2022-09-29T12:22:17;1.97;;;1.13;;
1366;SDS011;16877;48.810;9.282;2022-09-29T12:24:45;2.77;;;1.40;;
1366;SDS011;16877;48.810;9.282;2022-09-29T12:27:17;4.03;;;1.30;;
1366;SDS011;16877;48.810;9.282;2022-09-29T12:29:49;2.30;;;1.20;;
1366;SDS011;16877;48.810;9.282;2022-09-29T12:32:20;2.90;;;1.33;;
1366;SDS011;16877;48.810;9.282;2022-09-29T12:34:53;3.30;;;1.70;;
1366;SDS011;16877;48.810;9.282;2022-09-29T12:37:24;1.93;;;1.00;;
1366;SDS011;16877;48.810;9.282;2022-09-29T12:39:58;2.30;;;1.10;;
1366;SDS011;16877;48.810;9.282;2022-09-29T12:42:38;2.77;;;1.70;;
1366;SDS011;16877;48.810;9.282;2022-09-29T12:45:13;2.30;;;1.30;;
1366;SDS011;16877;48.810;9.282;2022-09-29T12:47:51;2.43;;;1.17;;
1366;SDS011;16877;48.810;9.282;2022-09-29T12:50:26;3.00;;;1.37;;
1366;SDS011;16877;48.810;9.282;2022-09-29T12:52:57;2.07;;;1.20;;
1366;SDS011;16877;48.810;9.282;2022-09-29T12:55:31;2.30;;;1.50;;
1366;SDS011;16877;48.810;9.282;2022-09-29T12:58:08;2.27;;;1.13;;
1366;SDS011;16877;48.810;9.282;2022-09-29T13:00:39;4.30;;;1.67;;
1366;SDS011;16877;48.810;9.282;2022-09-29T13:03:15;3.23;;;1.50;;
1366;SDS011;16877;48.810;9.282;2022-09-29T13:09:05;2.17;;;1.03;;
1366;SDS011;16877;48.810;9.282;2022-09-29T13:12:02;3.00;;;1.27;;
1366;SDS011;16877;48.810;9.282;2022-09-29T13:17:52;5.20;;;1.73;;
1366;SDS011;16877;48.810;9.282;2022-09-29T13:23:36;2.60;;;1.10;;
1366;SDS011;16877;48.810;9.282;2022-09-29T13:26:21;3.50;;;1.20;;
1366;SDS011;16877;48.810;9.282;2022-09-29T13:29:02;2.40;;;1.20;;
1366;SDS011;16877;48.810;9.282;2022-09-29T13:31:37;2.53;;;1.20;;
1366;SDS011;16877;48.810;9.282;2022-09-29T13:34:05;2.47;;;1.30;;
1366;SDS011;16877;48.810;9.282;2022-09-29T13:36:42;3.50;;;1.40;;
1366;SDS011;16877;48.810;9.282;2022-09-29T13:39:18;2.30;;;1.07;;
1366;SDS011;16877;48.810;9.282;2022-09-29T13:41:47;2.93;;;1.50;;
1366;SDS011;16877;48.810;9.282;2022-09-29T13:44:21;3.00;;;1.33;;
1366;SDS011;16877;48.810;9.282;2022-09-29T13:46:51;3.23;;;1.10;;
1366;SDS011;16877;48.810;9.282;2022-09-29T13:49:22;6.70;;;1.63;;
1366;SDS011;16877;48.810;9.282;2022-09-29T13:51:52;3.10;;;1.40;;
1366;SDS011;16877;48.810;9.282;2022-09-29T13:54:24;3.07;;;1.40;;
1366;SDS011;16877;48.810;9.282;2022-09-29T13:57:07;2.53;;;1.40;;
1366;SDS011;16877;48.810;9.282;2022-09-29T13:59:59;2.30;;;1.17;;
1366;SDS011;16877;48.810;9.282;2022-09-29T14:02:33;3.07;;;1.40;;
1366;SDS011;16877;48.810;9.282;2022-09-29T14:05:04;2.40;;;1.30;;
1366;SDS011;16877;48.810;9.282;2022-09-29T14:07:35;2.63;;;1.30;;
1366;SDS011;16877;48.810;9.282;2022-09-29T14:10:12;2.33;;;1.10;;
1366;SDS011;16877;48.810;9.282;2022-09-29T14:12:45;3.20;;;1.63;;
1366;SDS011;16877;48.810;9.282;2022-09-29T14:15:16;2.40;;;1.27;;
1366;SDS011;16877;48.810;9.282;2022-09-29T14:17:46;2.70;;;1.30;;
1366;SDS011;16877;48.810;9.282;2022-09-29T14:20:19;2.30;;;1.00;;
1366;SDS011;16877;48.810;9.282;2022-09-29T14:22:57;2.90;;;1.60;;
1366;SDS011;16877;48.810;9.282;2022-09-29T14:25:33;2.37;;;1.13;;
1366;SDS011;16877;48.810;9.282;2022-09-29T14:28:18;2.97;;;1.23;;
1366;SDS011;16877;48.810;9.282;2022-09-29T14:30:57;3.57;;;1.43;;
1366;SDS011;16877;48.810;9.282;2022-09-29T14:33:29;3.00;;;1.33;;
1366;SDS011;16877;48.810;9.282;2022-09-29T14:36:03;3.33;;;1.90;;
1366;SDS011;16877;48.810;9.282;2022-09-29T14:38:36;2.73;;;1.33;;
1366;SDS011;16877;48.810;9.282;2022-09-29T14:41:15;5.57;;;1.90;;
1366;SDS011;16877;48.810;9.282;2022-09-29T14:43:49;3.43;;;1.97;;
1366;SDS011;16877;48.810;9.282;2022-09-29T14:46:30;4.00;;;2.07;;
1366;SDS011;16877;48.810;9.282;2022-09-29T14:49:33;2.90;;;1.60;;
1366;SDS011;16877;48.810;9.282;2022-09-29T14:52:35;3.50;;;1.67;;
1366;SDS011;16877;48.810;9.282;2022-09-29T14:55:13;3.10;;;1.77;;
1366;SDS011;16877;48.810;9.282;2022-09-29T14:57:47;3.73;;;1.83;;
1366;SDS011;16877;48.810;9.282;2022-09-29T15:00:29;4.40;;;1.77;;
1366;SDS011;16877;48.810;9.282;2022-09-29T15:03:07;3.40;;;1.73;;
1366;SDS011;16877;48.810;9.282;2022-09-29T15:05:36;3.53;;;1.83;;
1366;SDS011;16877;48.810;9.282;2022-09-29T15:08:14;3.97;;;2.50;;
1366;SDS011;16877;48.810;9.282;2022-09-29T15:10:51;2.27;;;1.30;;
1366;SDS011;16877;48.810;9.282;2022-09-29T15:13:21;3.33;;;1.50;;
1366;SDS011;16877;48.810;9.282;2022-09-29T15:15:53;2.23;;;1.30;;
1366;SDS011;16877;48.810;9.282;2022-09-29T15:18:30;3.07;;;1.40;;
1366;SDS011;16877;48.810;9.282;2022-09-29T15:21:25;3.50;;;1.87;;
1366;SDS011;16877;48.810;9.282;2022-09-29T15:26:59;4.37;;;2.10;;
1366;SDS011;16877;48.810;9.282;2022-09-29T15:29:26;2.63;;;1.57;;
1366;SDS011;16877;48.810;9.282;2022-09-29T15:31:53;3.40;;;1.33;;
1366;SDS011;16877;48.810;9.282;2022-09-29T15:34:21;3.10;;;1.70;;
1366;SDS011;16877;48.810;9.282;2022-09-29T15:36:52;2.57;;;1.40;;
1366;SDS011;16877;48.810;9.282;2022-09-29T15:39:40;2.70;;;1.33;;
1366;SDS011;16877;48.810;9.282;2022-09-29T15:42:12;4.80;;;1.40;;
1366;SDS011;16877;48.810;9.282;2022-09-29T15:44:46;3.60;;;1.13;;
1366;SDS011;16877;48.810;9.282;2022-09-29T15:47:19;3.17;;;1.73;;
1366;SDS011;16877;48.810;9.282;2022-09-29T15:49:48;3.20;;;1.40;;